createdAt,value
2017-11-14T00:02:14.493Z,24.97
2017-11-14T00:04:45.537Z,24.53
2017-11-14T00:10:30.901Z,17.93
2017-11-14T00:13:07.546Z,19.40
2017-11-14T00:15:37.582Z,18.73
2017-11-14T00:18:07.821Z,21.03
2017-11-14T00:20:37.273Z,23.17
2017-11-14T00:23:07.566Z,27.57
2017-11-14T00:25:38.477Z,21.87
2017-11-14T00:28:07.987Z,24.67
2017-11-14T00:30:35.825Z,25.47
2017-11-14T00:33:09.360Z,32.83
2017-11-14T00:35:40.062Z,22.70
2017-11-14T00:38:09.620Z,20.50
2017-11-14T00:40:37.469Z,18.37
2017-11-14T00:43:07.044Z,20.57
2017-11-14T00:45:38.915Z,16.53
2017-11-14T00:48:06.834Z,21.50
2017-11-14T00:50:36.801Z,25.53
2017-11-14T00:53:04.817Z,18.57
2017-11-14T00:55:32.557Z,17.90
2017-11-14T00:58:00.704Z,18.33
2017-11-14T01:00:30.006Z,21.13
2017-11-14T01:02:58.924Z,17.80
2017-11-14T01:05:28.045Z,19.43
2017-11-14T01:07:56.774Z,17.37
2017-11-14T01:10:25.647Z,18.90
2017-11-14T01:12:54.237Z,17.33
2017-11-14T01:15:22.091Z,18.63
2017-11-14T01:21:00.377Z,16.13
2017-11-14T01:23:27.959Z,15.87
2017-11-14T01:25:56.575Z,22.03
2017-11-14T01:28:24.069Z,16.23
2017-11-14T01:30:51.786Z,15.20
2017-11-14T01:33:19.341Z,20.63
2017-11-14T01:35:46.845Z,15.87
2017-11-14T01:38:14.436Z,16.67
2017-11-14T01:40:43.157Z,19.43
2017-11-14T01:43:10.718Z,14.13
2017-11-14T01:45:38.251Z,21.87
2017-11-14T01:48:06.744Z,29.70
2017-11-14T01:50:34.395Z,19.57
2017-11-14T01:53:03.981Z,18.67
2017-11-14T01:55:32.017Z,22.70
2017-11-14T02:00:59.564Z,20.20
2017-11-14T02:03:35.751Z,22.30
2017-11-14T02:06:04.861Z,18.00
2017-11-14T02:08:32.840Z,18.10
2017-11-14T02:11:21.090Z,17.23
2017-11-14T02:13:48.939Z,25.47
2017-11-14T02:16:18.246Z,20.47
2017-11-14T02:18:47.006Z,16.60
2017-11-14T02:21:17.056Z,22.80
2017-11-14T02:23:48.276Z,21.13
2017-11-14T02:26:17.331Z,19.20
2017-11-14T02:28:47.361Z,27.77
2017-11-14T02:31:20.618Z,24.50
2017-11-14T02:33:48.508Z,24.50
2017-11-14T02:36:19.496Z,24.47
2017-11-14T02:38:52.076Z,29.13
2017-11-14T02:41:21.008Z,24.50
2017-11-14T02:43:49.569Z,20.03
2017-11-14T02:46:18.123Z,19.80
2017-11-14T02:48:45.858Z,18.23
2017-11-14T02:51:30.809Z,35.00
2017-11-14T02:53:58.413Z,21.10
2017-11-14T02:56:26.024Z,19.37
2017-11-14T02:58:53.622Z,18.73
2017-11-14T03:01:21.246Z,12.90
2017-11-14T03:03:53.277Z,23.70
2017-11-14T03:06:22.048Z,16.30
2017-11-14T03:08:49.611Z,25.40
2017-11-14T03:11:29.320Z,21.67
2017-11-14T03:13:56.863Z,17.03
2017-11-14T03:16:24.497Z,21.23
2017-11-14T03:18:52.060Z,30.43
2017-11-14T03:21:19.705Z,19.53
2017-11-14T03:23:47.299Z,14.70
2017-11-14T03:26:14.894Z,20.90
2017-11-14T03:28:42.484Z,17.17
2017-11-14T03:31:13.344Z,20.50
2017-11-14T03:33:41.668Z,14.30
2017-11-14T03:36:09.207Z,17.20
2017-11-14T03:38:36.716Z,17.27
2017-11-14T03:41:04.326Z,20.43
2017-11-14T03:43:31.872Z,18.53
2017-11-14T03:45:59.496Z,15.80
2017-11-14T03:48:50.110Z,17.97
2017-11-14T03:51:17.715Z,18.57
2017-11-14T03:53:46.035Z,17.43
2017-11-14T04:02:02.446Z,23.20
2017-11-14T04:04:29.922Z,20.10
2017-11-14T04:06:57.539Z,15.47
2017-11-14T04:09:25.771Z,20.23
2017-11-14T04:23:34.915Z,15.30
2017-11-14T04:26:03.141Z,18.40
2017-11-14T04:28:30.634Z,17.10
2017-11-14T04:30:58.129Z,17.10
2017-11-14T04:33:25.563Z,19.43
2017-11-14T04:35:53.029Z,13.20
2017-11-14T04:38:26.828Z,12.97
2017-11-14T04:40:55.038Z,15.13
2017-11-14T04:43:22.466Z,19.03
2017-11-14T04:45:51.690Z,28.37
2017-11-14T04:48:29.018Z,16.37
2017-11-14T04:50:56.459Z,16.80
2017-11-14T04:53:23.895Z,19.93
2017-11-14T04:55:51.324Z,16.97
2017-11-14T04:58:18.748Z,26.47
2017-11-14T05:00:46.185Z,12.63
2017-11-14T05:03:13.627Z,19.80
2017-11-14T05:05:41.049Z,17.50
2017-11-14T05:08:09.249Z,22.57
2017-11-14T05:10:36.686Z,17.10
2017-11-14T05:13:04.896Z,18.07
2017-11-14T05:15:32.334Z,24.43
2017-11-14T05:17:59.815Z,17.27
2017-11-14T05:20:27.229Z,17.30
2017-11-14T05:22:55.428Z,15.90
2017-11-14T05:25:22.857Z,24.60
2017-11-14T05:27:51.069Z,16.67
2017-11-14T05:30:18.497Z,16.40
2017-11-14T05:32:47.557Z,23.13
2017-11-14T05:35:15.002Z,17.73
2017-11-14T05:37:42.441Z,24.33
2017-11-14T05:40:11.925Z,25.77
2017-11-14T05:42:39.370Z,23.10
2017-11-14T05:45:07.561Z,19.80
2017-11-14T05:47:35.014Z,26.13
2017-11-14T05:50:02.452Z,21.17
2017-11-14T05:52:30.648Z,27.37
2017-11-14T05:54:58.086Z,26.63
2017-11-14T05:57:26.286Z,16.60
2017-11-14T05:59:53.722Z,19.43
2017-11-14T06:02:21.933Z,23.60
2017-11-14T06:04:49.369Z,21.93
2017-11-14T06:07:16.801Z,19.70
2017-11-14T06:09:45.013Z,21.03
2017-11-14T06:12:12.442Z,19.17
2017-11-14T06:14:39.886Z,19.00
2017-11-14T06:17:09.097Z,19.47
2017-11-14T06:19:37.310Z,19.57
2017-11-14T06:22:04.773Z,22.77
2017-11-14T06:24:32.199Z,19.20
2017-11-14T06:26:59.629Z,25.70
2017-11-14T06:29:27.882Z,19.70
2017-11-14T06:31:56.057Z,16.43
2017-11-14T06:34:23.502Z,20.20
2017-11-14T06:36:50.939Z,18.57
2017-11-14T06:39:18.385Z,17.97
2017-11-14T06:41:49.798Z,18.43
2017-11-14T06:44:18.002Z,20.47
2017-11-14T06:46:45.437Z,18.20
2017-11-14T06:49:13.644Z,18.13
2017-11-14T06:51:41.087Z,19.73
2017-11-14T06:54:08.517Z,15.47
2017-11-14T06:56:36.729Z,20.50
2017-11-14T06:59:04.154Z,23.47
2017-11-14T07:01:32.349Z,25.37
2017-11-14T07:03:59.786Z,28.23
2017-11-14T07:06:53.101Z,25.40
2017-11-14T07:09:20.541Z,26.03
2017-11-14T07:11:47.973Z,26.47
2017-11-14T07:14:16.188Z,21.67
2017-11-14T07:16:43.620Z,24.20
2017-11-14T07:19:11.061Z,26.13
2017-11-14T07:21:39.272Z,20.70
2017-11-14T07:24:06.704Z,29.30
2017-11-14T07:26:34.148Z,22.00
2017-11-14T07:29:02.361Z,25.23
2017-11-14T07:31:29.805Z,34.20
2017-11-14T07:33:57.238Z,25.47
2017-11-14T07:36:25.444Z,27.20
2017-11-14T07:38:52.869Z,26.07
2017-11-14T07:41:22.156Z,24.13
2017-11-14T07:43:50.360Z,23.30
2017-11-14T07:46:17.803Z,26.97
2017-11-14T07:48:45.994Z,33.83
2017-11-14T07:51:13.436Z,27.50
2017-11-14T07:53:41.643Z,32.03
2017-11-14T07:56:09.101Z,26.17
2017-11-14T07:58:36.581Z,30.60
2017-11-14T08:01:04.027Z,23.77
2017-11-14T08:03:31.455Z,27.23
2017-11-14T08:05:58.885Z,23.00
2017-11-14T08:08:36.437Z,28.27
2017-11-14T08:11:03.882Z,32.10
2017-11-14T08:13:31.305Z,27.50
2017-11-14T08:15:59.512Z,22.73
2017-11-14T08:18:26.945Z,26.90
2017-11-14T08:20:54.478Z,30.07
2017-11-14T08:23:21.905Z,20.80
2017-11-14T08:25:49.379Z,36.73
2017-11-14T08:28:16.811Z,29.60
2017-11-14T08:30:44.257Z,25.13
2017-11-14T08:33:11.709Z,27.13
2017-11-14T08:35:40.157Z,26.30
2017-11-14T08:38:08.354Z,25.43
2017-11-14T08:40:35.800Z,23.67
2017-11-14T08:43:03.989Z,31.90
2017-11-14T08:45:31.467Z,36.73
2017-11-14T08:47:58.913Z,28.33
2017-11-14T08:50:26.373Z,25.43
2017-11-14T08:52:56.851Z,25.87
2017-11-14T08:55:24.300Z,27.87
2017-11-14T08:57:58.776Z,30.03
2017-11-14T09:00:26.209Z,23.50
2017-11-14T09:02:53.645Z,29.07
2017-11-14T09:05:21.078Z,26.33
2017-11-14T09:07:56.006Z,29.70
2017-11-14T09:10:26.774Z,27.80
2017-11-14T09:13:01.163Z,29.23
2017-11-14T09:15:29.369Z,30.40
2017-11-14T09:17:57.866Z,23.47
2017-11-14T09:20:25.415Z,19.60
2017-11-14T09:22:53.630Z,22.73
2017-11-14T09:25:21.134Z,21.10
2017-11-14T09:27:48.574Z,27.30
2017-11-14T09:30:16.005Z,32.10
2017-11-14T09:32:43.446Z,27.07
2017-11-14T09:35:10.882Z,26.70
2017-11-14T09:37:39.084Z,35.33
2017-11-14T09:40:07.285Z,29.63
2017-11-14T09:42:34.717Z,22.30
2017-11-14T09:45:02.169Z,35.63
2017-11-14T09:47:29.584Z,41.10
2017-11-14T09:49:57.026Z,41.73
2017-11-14T09:52:24.462Z,27.70
2017-11-14T09:54:51.915Z,21.90
2017-11-14T09:57:20.445Z,28.03
2017-11-14T09:59:48.999Z,29.73
2017-11-14T10:02:16.431Z,27.87
2017-11-14T10:04:43.913Z,22.33
2017-11-14T10:07:11.410Z,20.50
2017-11-14T10:09:39.679Z,34.23
2017-11-14T10:12:07.110Z,21.40
2017-11-14T10:14:34.546Z,18.47
2017-11-14T10:17:01.983Z,18.23
2017-11-14T10:19:29.475Z,17.20
2017-11-14T10:22:00.864Z,17.43
2017-11-14T10:24:33.052Z,16.73
2017-11-14T10:27:07.721Z,16.53
2017-11-14T10:29:35.190Z,28.50
2017-11-14T10:32:02.627Z,21.30
2017-11-14T10:34:30.070Z,23.67
2017-11-14T10:36:59.392Z,14.67
2017-11-14T10:39:26.837Z,18.27
2017-11-14T10:41:55.182Z,18.13
2017-11-14T10:44:22.634Z,18.20
2017-11-14T10:46:50.990Z,23.73
2017-11-14T10:49:18.480Z,24.30
2017-11-14T10:51:46.947Z,23.20
2017-11-14T10:54:15.159Z,22.80
2017-11-14T10:56:42.629Z,19.80
2017-11-14T10:59:10.064Z,18.53
2017-11-14T11:01:37.498Z,26.60
2017-11-14T11:04:04.944Z,20.57
2017-11-14T11:06:33.181Z,18.40
2017-11-14T11:09:00.638Z,23.47
2017-11-14T11:11:30.144Z,20.47
2017-11-14T11:13:57.595Z,32.50
2017-11-14T11:16:33.576Z,21.67
2017-11-14T11:19:01.043Z,25.83
2017-11-14T11:21:28.478Z,20.60
2017-11-14T11:23:55.922Z,30.97
2017-11-14T11:26:23.363Z,29.63
2017-11-14T11:28:50.800Z,30.20
2017-11-14T11:31:18.239Z,29.20
2017-11-14T11:33:46.439Z,20.37
2017-11-14T11:36:13.869Z,19.23
2017-11-14T11:38:42.081Z,27.97
2017-11-14T11:41:09.515Z,31.30
2017-11-14T11:43:37.775Z,23.60
2017-11-14T11:46:06.002Z,23.13
2017-11-14T11:48:33.498Z,18.87
2017-11-14T11:51:00.943Z,21.37
2017-11-14T11:53:28.373Z,19.57
2017-11-14T11:55:55.828Z,22.67
2017-11-14T11:58:23.262Z,19.43
2017-11-14T12:00:50.693Z,16.97
2017-11-14T12:03:18.909Z,18.63
2017-11-14T12:05:46.353Z,13.87
2017-11-14T12:08:13.779Z,18.13
2017-11-14T12:10:42.991Z,18.53
2017-11-14T12:13:11.195Z,19.27
2017-11-14T12:15:38.624Z,13.67
2017-11-14T12:18:06.833Z,19.17
2017-11-14T12:20:35.385Z,13.60
2017-11-14T12:23:03.583Z,13.80
2017-11-14T12:25:31.010Z,16.37
2017-11-14T12:27:59.312Z,13.37
2017-11-14T12:30:26.738Z,12.23
2017-11-14T12:32:54.930Z,16.03
2017-11-14T12:35:23.374Z,9.17
2017-11-14T12:37:50.798Z,10.10
2017-11-14T12:40:18.231Z,11.93
2017-11-14T12:42:45.675Z,12.77
2017-11-14T12:45:13.876Z,13.83
2017-11-14T12:47:41.310Z,6.97
2017-11-14T12:50:08.744Z,10.37
2017-11-14T12:52:36.204Z,11.63
2017-11-14T12:55:03.650Z,12.23
2017-11-14T12:57:31.074Z,9.40
2017-11-14T12:59:58.520Z,10.10
2017-11-14T13:02:25.954Z,17.40
2017-11-14T13:04:53.400Z,9.63
2017-11-14T13:07:20.823Z,17.03
2017-11-14T13:09:48.254Z,11.07
2017-11-14T13:12:15.675Z,13.13
2017-11-14T13:14:43.107Z,9.57
2017-11-14T13:17:10.529Z,8.40
2017-11-14T13:19:37.949Z,8.03
2017-11-14T13:22:05.391Z,8.33
2017-11-14T13:24:33.598Z,8.80
2017-11-14T13:27:01.014Z,14.03
2017-11-14T13:29:29.233Z,10.13
2017-11-14T13:32:01.562Z,6.20
2017-11-14T13:34:28.985Z,9.57
2017-11-14T13:36:56.412Z,9.63
2017-11-14T13:39:23.847Z,10.63
2017-11-14T13:41:54.046Z,9.50
2017-11-14T13:44:21.508Z,10.70
2017-11-14T13:46:49.698Z,13.13
2017-11-14T13:49:17.897Z,11.77
2017-11-14T13:51:45.328Z,10.30
2017-11-14T13:54:13.531Z,6.53
2017-11-14T13:56:40.952Z,6.90
2017-11-14T14:02:23.639Z,6.33
2017-11-14T14:04:51.180Z,12.43
2017-11-14T17:18:39.599Z,39.40
2017-11-14T17:21:07.813Z,41.20
2017-11-14T17:23:35.256Z,55.73
2017-11-14T17:26:02.685Z,45.97
2017-11-14T17:28:30.127Z,45.90
2017-11-14T17:30:57.599Z,44.10
2017-11-14T17:33:25.800Z,47.07
2017-11-14T17:35:53.230Z,43.10
2017-11-14T17:38:21.467Z,41.83
2017-11-14T17:40:48.910Z,40.07
2017-11-14T17:43:16.341Z,47.83
2017-11-14T17:48:17.071Z,42.40
2017-11-14T17:50:45.287Z,46.27
2017-11-14T17:53:13.709Z,58.70
2017-11-14T17:55:41.196Z,44.70
2017-11-14T17:58:09.377Z,53.60
2017-11-14T18:00:36.815Z,43.63
2017-11-14T18:03:05.031Z,43.00
2017-11-14T18:05:32.455Z,46.40
2017-11-14T18:08:00.666Z,48.53
2017-11-14T18:10:28.119Z,47.47
2017-11-14T18:12:56.558Z,46.97
2017-11-14T18:15:28.205Z,56.23
2017-11-14T18:17:57.427Z,40.83
2017-11-14T18:20:38.322Z,58.50
2017-11-14T18:23:05.758Z,55.17
2017-11-14T18:25:38.531Z,53.40
2017-11-14T18:28:06.744Z,52.93
2017-11-14T18:30:34.176Z,117.73
2017-11-14T18:33:01.623Z,49.53
2017-11-14T18:35:29.832Z,55.33
2017-11-14T18:37:58.265Z,55.97
2017-11-14T18:40:26.456Z,49.27
2017-11-14T18:42:53.907Z,53.77
2017-11-14T18:45:22.117Z,52.40
2017-11-14T18:47:49.569Z,57.53
2017-11-14T18:50:18.636Z,50.33
2017-11-14T18:53:08.925Z,59.77
2017-11-14T18:56:00.037Z,59.10
2017-11-14T18:58:35.745Z,58.67
2017-11-14T19:01:10.776Z,134.07
2017-11-14T19:04:08.305Z,215.80
2017-11-14T19:15:33.883Z,51.93
2017-11-14T19:18:01.314Z,60.03
2017-11-14T19:20:29.556Z,52.67
2017-11-14T19:22:57.454Z,51.33
2017-11-14T19:25:25.662Z,50.80
2017-11-14T19:27:53.098Z,51.17
2017-11-14T19:30:20.540Z,54.33
2017-11-14T19:32:48.750Z,49.83
2017-11-14T19:35:16.183Z,50.97
2017-11-14T19:37:44.392Z,52.40
2017-11-14T19:40:13.901Z,52.67
2017-11-14T19:42:41.347Z,49.13
2017-11-14T19:45:08.782Z,46.77
2017-11-14T19:47:36.224Z,53.23
2017-11-14T19:50:04.423Z,45.87
2017-11-14T19:52:31.861Z,44.70
2017-11-14T19:55:00.056Z,49.63
2017-11-14T19:57:27.553Z,47.70
2017-11-14T20:00:08.194Z,51.33
2017-11-14T20:02:35.621Z,53.43
2017-11-14T20:05:09.308Z,40.37
2017-11-14T20:07:41.574Z,45.60
2017-11-14T20:10:09.010Z,49.67
2017-11-14T20:12:47.957Z,52.60
2017-11-14T20:15:15.428Z,48.40
2017-11-14T20:17:43.639Z,43.20
2017-11-14T20:20:11.085Z,45.73
2017-11-14T20:22:38.519Z,46.13
2017-11-14T20:25:08.745Z,62.03
2017-11-14T20:27:40.807Z,53.20
2017-11-14T20:30:09.004Z,47.17
2017-11-14T20:32:36.449Z,56.20
2017-11-14T20:35:03.884Z,49.80
2017-11-14T20:37:31.341Z,47.43
2017-11-14T20:39:59.768Z,47.33
2017-11-14T20:42:50.185Z,49.33
2017-11-14T20:45:20.958Z,52.53
2017-11-14T20:47:49.162Z,45.47
2017-11-14T20:50:16.614Z,36.30
2017-11-14T20:52:44.042Z,39.70
2017-11-14T20:55:17.478Z,41.43
2017-11-14T20:57:44.928Z,48.03
2017-11-14T21:00:12.352Z,45.00
2017-11-14T21:02:40.739Z,47.17
2017-11-14T21:05:08.942Z,44.80
2017-11-14T21:07:36.384Z,48.23
2017-11-14T21:10:07.379Z,54.10
2017-11-14T21:12:34.821Z,56.97
2017-11-14T21:15:02.284Z,42.17
2017-11-14T21:17:31.739Z,51.00
2017-11-14T21:19:59.175Z,50.30
2017-11-14T21:22:33.065Z,48.80
2017-11-14T21:25:00.513Z,53.90
2017-11-14T21:27:27.958Z,52.13
2017-11-14T21:29:55.406Z,57.63
2017-11-14T21:32:22.846Z,47.63
2017-11-14T21:34:50.372Z,43.50
2017-11-14T21:37:17.810Z,51.37
2017-11-14T21:39:45.287Z,43.60
2017-11-14T21:42:12.713Z,47.10
2017-11-14T21:44:40.152Z,47.80
2017-11-14T21:47:07.577Z,49.40
2017-11-14T21:49:35.829Z,44.90
2017-11-14T21:52:03.261Z,43.80
2017-11-14T21:54:30.702Z,51.20
2017-11-14T21:56:58.141Z,46.47
2017-11-14T21:59:25.576Z,40.63
2017-11-14T22:01:53.781Z,43.77
2017-11-14T22:04:21.223Z,43.70
2017-11-14T22:06:48.664Z,42.63
2017-11-14T22:09:16.882Z,41.73
2017-11-14T22:11:44.319Z,56.07
2017-11-14T22:14:11.763Z,47.47
2017-11-14T22:16:39.262Z,45.90
2017-11-14T22:19:06.702Z,48.37
2017-11-14T22:21:34.134Z,44.90
2017-11-14T22:24:01.585Z,40.77
2017-11-14T22:26:29.862Z,47.87
2017-11-14T22:29:00.079Z,47.90
2017-11-14T22:31:28.289Z,38.80
2017-11-14T22:33:55.725Z,33.33
2017-11-14T22:36:23.174Z,39.67
2017-11-14T22:38:51.379Z,43.80
2017-11-14T22:41:18.968Z,37.03
2017-11-14T22:43:46.415Z,45.13
2017-11-14T22:46:13.865Z,42.47
2017-11-14T22:48:41.299Z,43.43
2017-11-14T22:51:08.737Z,38.30
2017-11-14T22:53:36.180Z,50.47
2017-11-14T22:56:03.625Z,52.37
2017-11-14T22:58:31.057Z,43.90
2017-11-14T23:00:58.497Z,44.50
2017-11-14T23:03:25.947Z,54.37
2017-11-14T23:05:53.377Z,41.47
2017-11-14T23:08:21.594Z,43.93
2017-11-14T23:10:49.040Z,43.00
2017-11-14T23:13:16.477Z,42.53
2017-11-14T23:15:43.906Z,47.03
2017-11-14T23:18:12.115Z,48.47
2017-11-14T23:20:39.546Z,44.87
2017-11-14T23:23:07.746Z,53.20
2017-11-14T23:25:35.177Z,35.77
2017-11-14T23:28:03.393Z,45.63
2017-11-14T23:30:30.850Z,49.40
2017-11-14T23:32:58.309Z,43.47
2017-11-14T23:35:25.731Z,54.83
2017-11-14T23:37:53.173Z,44.17
2017-11-14T23:40:20.606Z,51.03
2017-11-14T23:42:48.080Z,42.30
2017-11-14T23:45:15.518Z,42.30
2017-11-14T23:47:42.948Z,52.33
2017-11-14T23:50:11.407Z,44.97
2017-11-14T23:52:38.828Z,42.53
2017-11-14T23:55:06.281Z,49.63
2017-11-14T23:57:33.709Z,44.93
